ADDS METAR Data INFO
IDs: Format: Raw Decoded Include TAF

Data at: 1036 UTC 19 Oct 2017

PAKP 190956Z AUTO 33004KT 10SM BKN013 OVC024 M17/M19 A2931 RMK AO2 SLP989 T11721194 FZRANO
PAKP 190949Z AUTO 33005KT 10SM BKN013 OVC024 M17/M19 A2931 RMK AO2 FZRANO
PAKP 190856Z AUTO 34004KT 10SM FEW022 BKN028 M16/M18 A2932 RMK AO2 SLP990 60000 T11561178 410941167 57005 FZRANO
PAKP 190756Z AUTO 36004KT 10SM OVC026 M16/M18 A2933 RMK AO2 SNE48 SLP993 P0000 T11611178 FZRANO
PAKP 190743Z AUTO 35003KT 9SM -SN BKN028 M17/M18 A2933 RMK AO2 P0000 FZRANO
PAKP 190656Z AUTO VRB04KT 8SM -SN BKN050 M15/M18 A2933 RMK AO2 SLP993 P0000 T11501178 FZRANO
PAKP 190556Z AUTO 08006KT 6SM -SN BR OVC055 M14/M16 A2934 RMK AO2 SLP994 P0000 60000 T11441161 11111 21144 50000 FZRANO
PAKP 190523Z AUTO 05008KT 3SM -SN BR FEW025 SCT034 OVC055 M13/M16 A2934 RMK AO2 P0000 FZRANO
PAKP 190505Z AUTO 04008KT 2SM -SN BR FEW025 BKN036 OVC055 M14/M16 A2934 RMK AO2 P0000 FZRANO
PAKP 190456Z AUTO 06008KT 3SM -SN BR FEW029 BKN047 OVC055 M14/M16 A2934 RMK AO2 SLP995 P0000 T11391156 FZRANO
PAKP 190421Z AUTO 04007KT 2 1/2SM -SN BR FEW011 SCT017 OVC055 M13/M15 A2933 RMK AO2 P0000 FZRANO
PAKP 190405Z AUTO 04009KT 1 1/4SM -SN BR FEW011 BKN018 OVC030 M13/M14 A2934 RMK AO2 P0000 FZRANO
PAKP 190356Z AUTO 04008KT 3/4SM -SN BR FEW013 BKN018 OVC039 M13/M14 A2934 RMK AO2 SLP997 P0000 T11281144 FZRANO
PAKP 190346Z AUTO 04010KT 1SM -SN BR SCT018 BKN023 OVC039 M13/M14 A2934 RMK AO2 P0000 FZRANO
PAKP 190334Z AUTO 04009KT 1 3/4SM -SN BR FEW026 BKN039 OVC049 M13/M14 A2934 RMK AO2 P0000 FZRANO
PAKP 190322Z AUTO 04008KT 2SM -SN BR FEW026 OVC039 M13/M14 A2934 RMK AO2 P0000 FZRANO
PAKP 190256Z AUTO 06009KT 5SM -SN FEW029 OVC042 M12/M15 A2933 RMK AO2 SLP994 P0000 60000 T11221150 53002 FZRANO
PAKP 190206Z AUTO 06011KT 4SM -SN BR FEW028 BKN037 OVC055 M12/M14 A2933 RMK AO2 P0000 FZRANO
PAKP 190156Z AUTO 07010KT 2 1/2SM -SN BR FEW029 BKN034 OVC055 M12/M14 A2933 RMK AO2 SLP992 P0000 T11221144 FZRANO
PAKP 190154Z AUTO 06011KT 3SM -SN BR FEW027 BKN036 OVC055 M12/M14 A2933 RMK AO2 P0000 FZRANO
PAKP 190135Z AUTO 04010KT 2 1/2SM -SN BR FEW024 BKN050 OVC060 M12/M14 A2933 RMK AO2 P0000 FZRANO
PAKP 190056Z AUTO 06011KT 1 1/2SM -SN BR BKN037 OVC060 M12/M14 A2933 RMK AO2 SLP991 P0000 T11171139 FZRANO
PAKP 190037Z AUTO 06012KT 1 1/4SM -SN BKN037 OVC045 M11/M14 A2933 RMK AO2 P0000 FZRANO
PAKP 190025Z AUTO 05009KT 2 1/2SM -SN OVC035 M11/M14 A2933 RMK AO2 P0000 FZRANO
PAKP 182356Z AUTO 06012KT 1 1/2SM -SN BKN036 OVC046 M11/M14 A2933 RMK AO2 SLP992 P0000 60000 T11111139 11094 21111 50001 FZRANO
PAKP 182354Z AUTO 06011KT 1 3/4SM -SN BKN036 OVC048 M11/M14 A2933 RMK AO2 P0000 FZRANO
PAKP 182256Z AUTO VRB03KT 6SM -SN FEW017 BKN042 OVC050 M11/M14 A2933 RMK AO2 SLP994 P0000 T11061144 FZRANO
PAKP 182235Z AUTO VRB03KT 4SM -SN FEW015 BKN049 OVC060 M10/M14 A2933 RMK AO2 P0000 FZRANO
PAKP 182213Z AUTO 33007KT 2SM -SN FEW013 SCT045 OVC065 M10/M14 A2933 RMK AO2 VIS 1 1/2V2 1/2 P0000 FZRANO
PAKP 182156Z AUTO 33006KT 4SM -SN FEW019 SCT033 OVC065 M10/M14 A2933 RMK AO2 SLP990 P0000 T11001144 FZRANO
PAKP 182146Z AUTO 34006KT 2 1/2SM -SN SCT023 BKN032 OVC060 M10/M14 A2933 RMK AO2 P0000 FZRANO
PAKP 182056Z AUTO 01004KT 1 1/2SM -SN SCT020 OVC029 M09/M13 A2933 RMK AO2 SLP989 P0000 60000 T10941133 52014 FZRANO
PAKP 182017Z AUTO 03008KT 1 1/4SM -SN BR FEW017 OVC025 M10/M12 A2932 RMK AO2 P0000 FZRANO
PAKP 182007Z AUTO 04010KT 1SM -SN BR SCT019 OVC025 M10/M12 A2931 RMK AO2 P0000 FZRANO
PAKP 181956Z AUTO 06008KT 1/2SM SN FZFG SCT017 OVC026 M10/M12 A2931 RMK AO2 SLP983 P0000 T11001122 FZRANO
PAKP 181951Z AUTO 06010KT 3/4SM -SN FEW019 OVC026 M10/M13 A2931 RMK AO2 P0000 FZRANO
PAKP 181940Z AUTO 04006KT 1 1/4SM -SN BKN024 OVC030 M10/M13 A2931 RMK AO2 P0000 FZRANO
PAKP 181932Z AUTO 07010KT 1SM -SN FEW021 BKN027 OVC033 M10/M13 A2931 RMK AO2 VIS 3/4V2 P0000 FZRANO
PAKP 181912Z AUTO 03011G16KT 1 1/4SM -SN FEW019 BKN024 OVC031 M10/M13 A2930 RMK AO2 P0000 FZRANO
PAKP 181903Z AUTO 05009KT 3/4SM -SN BKN024 OVC029 M10/M13 A2930 RMK AO2 P0000 FZRANO
PAKP 181856Z AUTO 05010KT 1SM -SN BKN023 OVC030 M09/M13 A2930 RMK AO2 SLP980 P0000 T10941128 FZRANO
PAKP 181837Z AUTO 36008KT 2SM -SN FEW020 BKN026 OVC032 M09/M14 A2930 RMK AO2 P0000 FZRANO
PAKP 181829Z AUTO 02008G16KT 1 3/4SM -SN FEW016 SCT021 OVC030 M09/M14 A2929 RMK AO2 VIS 3/4V3 P0000 FZRANO
PAKP 181825Z AUTO 01010G16KT 2SM -SN FEW016 SCT021 OVC027 M09/M13 A2929 RMK AO2 VIS 1 1/2V3 P0000 FZRANO
PAKP 181756Z AUTO 01005KT 1 1/4SM -SN SCT018 OVC025 M09/M12 A2928 RMK AO2 SLP973 P0000 60001 T10941122 11094 21122 53010 FZRANO
PAKP 181722Z AUTO VRB03KT 1 3/4SM -SN BR FEW009 SCT019 OVC025 M09/M11 A2926 RMK AO2 P0000 FZRANO
PAKP 181711Z AUTO 00000KT 1 3/4SM -SN BR FEW012 BKN019 OVC025 M09/M11 A2926 RMK AO2 P0000 FZRANO
PAKP 181656Z AUTO 31003KT 2 1/2SM -SN BR BKN016 OVC021 M10/M11 A2925 RMK AO2 VIS 1 3/4V3 SLP962 P0000 T11001111 FZRANO
PAKP 181645Z AUTO 00000KT 2 1/2SM -SN BR BKN016 BKN023 OVC028 M10/M12 A2925 RMK AO2 VIS 1 1/2V4 P0000 FZRANO
PAKP 181627Z AUTO 11004KT 1 3/4SM -SN BR SCT016 BKN025 OVC035 M11/M12 A2924 RMK AO2 P0000 FZRANO
PAKP 181615Z AUTO 00000KT 5SM -SN BR FEW018 BKN025 OVC042 M11/M13 A2925 RMK AO2 P0000 FZRANO
PAKP 181607Z AUTO 00000KT 4SM -SN BR FEW018 SCT025 OVC035 M11/M12 A2925 RMK AO2 P0000 FZRANO
PAKP 181556Z AUTO 00000KT 2SM -SN BR BKN019 OVC026 M11/M12 A2925 RMK AO2 SLP962 P0000 T11061122 FZRANO
PAKP 181530Z AUTO 00000KT 2 1/2SM -SN BR SCT019 BKN026 OVC045 M11/M12 A2925 RMK AO2 VIS 1 1/4V5 P0000 FZRANO
PAKP 181456Z AUTO VRB03KT 9SM -SN FEW035 BKN049 OVC065 M11/M13 A2925 RMK AO2 SLP962 P0000 60001 T11111128 55001 FZRANO
PAKP 181404Z AUTO 00000KT 3SM -SN BR FEW018 BKN030 OVC036 M11/M13 A2924 RMK AO2 P0000 FZRANO
PAKP 181356Z AUTO 00000KT 2 1/2SM -SN BR SCT018 BKN024 OVC031 M11/M13 A2925 RMK AO2 SLP961 P0001 T11111128 FZRANO
PAKP 181338Z AUTO 21004KT 1 1/2SM -SN BR OVC020 M11/M12 A2925 RMK AO2 P0000 FZRANO
PAKP 181320Z AUTO 00000KT 2SM -SN BR BKN024 OVC029 M11/M13 A2924 RMK AO2 P0000 FZRANO
PAKP 181256Z AUTO 22003KT 4SM -SN BR OVC028 M12/M13 A2925 RMK AO2 SLP960 P0000 T11171128 FZRANO
PAKP 181232Z AUTO 21004KT 2SM -SN BR OVC022 M12/M13 A2925 RMK AO2 P0000 FZRANO
PAKP 181156Z AUTO 20004KT 1 1/2SM -SN BR BKN020 BKN025 OVC030 M12/M14 A2925 RMK AO2 SLP962 P0000 60000 70001 T11221139 11106 21133 56005 FZRANO
PAKP 181144Z AUTO 21004KT 2 1/2SM -SN BR FEW020 BKN027 OVC046 M12/M13 A2926 RMK AO2 P0000 FZRANO
PAKP 181056Z AUTO 00000KT 6SM -SN BR BKN048 OVC055 M13/M14 A2926 RMK AO2 SLP968 P0000 T11331144 FZRANO
PAKP 180956Z AUTO 22003KT 8SM -SN OVC047 M13/M14 A2927 RMK AO2 SNE18B48 SLP970 P0000 T11281144 FZRANO
PAKP 180856Z AUTO 19003KT 3SM -SN BR FEW020 SCT028 OVC045 M12/M13 A2928 RMK AO2 SNE00B45 SLP973 P0000 60000 T11171133 410671128 56003 FZRANO
PAKP 180756Z AUTO 00000KT 7SM -SN FEW028 BKN034 OVC049 M12/M13 A2928 RMK AO2 SLP973 P0000 T11171133 FZRANO
PAKP 180656Z AUTO 00000KT 3SM -SN BR FEW028 BKN041 OVC050 M12/M14 A2928 RMK AO2 SLP976 P0000 T11221139 FZRANO
PAKP 180556Z AUTO 00000KT 6SM -SN BR FEW030 BKN045 OVC055 M11/M12 A2929 RMK AO2 SLP977 P0000 60000 T11061122 11067 21106 58004 FZRANO
PAKP 180504Z AUTO 35003KT 5SM -SN BR SCT021 SCT030 OVC060 M10/M12 A2929 RMK AO2 P0000 FZRANO
PAKP 180456Z AUTO 00000KT 4SM -SN BR SCT021 BKN029 OVC060 M10/M12 A2929 RMK AO2 SLP978 P0000 T11001117 FZRANO
PAKP 180453Z AUTO 00000KT 4SM -SN BR BKN021 BKN030 OVC037 M10/M12 A2929 RMK AO2 P0000 FZRANO
PAKP 180440Z AUTO 00000KT 4SM -SN BR SCT030 OVC036 M10/M12 A2930 RMK AO2 P0000 FZRANO
PAKP 180408Z AUTO 00000KT 3SM -SN BR BKN029 OVC036 M09/M11 A2930 RMK AO2 P0000 FZRANO
PAKP 180356Z AUTO 01003KT 4SM -SN BR BKN032 OVC044 M09/M11 A2930 RMK AO2 SLP980 P0000 T10941111 FZRANO
PAKP 180256Z AUTO 07005KT 9SM -SN BKN050 OVC070 M09/M11 A2930 RMK AO2 SLP980 P0000 60000 T10941111 56005 FZRANO
PAKP 180156Z AUTO 05004KT 3SM -SN BR FEW047 OVC055 M09/M11 A2931 RMK AO2 SLP982 P0000 T10891106 FZRANO
PAKP 180131Z AUTO 06005KT 3SM -SN BR FEW023 SCT033 OVC055 M08/M11 A2931 RMK AO2 P0000 FZRANO
PAKP 180115Z AUTO 05005KT 1 3/4SM -SN BR SCT022 BKN030 OVC044 M08/M11 A2931 RMK AO2 P0000 FZRANO
PAKP 180056Z AUTO 03003KT 5SM -SN FEW016 BKN046 OVC055 M08/M11 A2931 RMK AO2 SLP981 P0000 T10781106 FZRANO
PAKP 180048Z AUTO 03004KT 3SM -SN FEW016 BKN024 OVC048 M08/M11 A2931 RMK AO2 P0000 FZRANO
PAKP 180005Z AUTO 00000KT 1 1/4SM -SN BKN019 BKN028 OVC034 M07/M10 A2932 RMK AO2 P0000 FZRANO
PAKP 172356Z AUTO 00000KT 2 1/2SM -SN SCT021 BKN028 OVC033 M07/M10 A2932 RMK AO2 VIS 1 1/4V5 SLP982 P0000 60000 T10671100 11067 21128 57003 FZRANO
PAKP 172353Z AUTO 00000KT 3SM -SN SCT021 BKN028 OVC033 M07/M10 A2932 RMK AO2 P0000 FZRANO
PAKP 172340Z AUTO 00000KT 5SM -SN FEW027 OVC033 M07/M09 A2932 RMK AO2 P0000 FZRANO
PAKP 172320Z AUTO 00000KT 3SM -SN FEW020 BKN028 OVC034 M07/M10 A2932 RMK AO2 P0000 FZRANO
PAKP 172314Z AUTO 00000KT 1 3/4SM -SN SCT020 BKN026 OVC034 M07/M09 A2932 RMK AO2 P0000 FZRANO
PAKP 172307Z AUTO 00000KT 2SM -SN BR FEW020 BKN024 OVC034 M07/M09 A2932 RMK AO2 P0000 FZRANO
PAKP 172256Z AUTO 00000KT 2 1/2SM -SN BR OVC032 M08/M10 A2933 RMK AO2 SLP985 P0000 T10781100 FZRANO
PAKP 172254Z AUTO 00000KT 2 1/2SM -SN BR FEW027 OVC032 M08/M10 A2933 RMK AO2 P0000 FZRANO
PAKP 172242Z AUTO 00000KT 1 1/2SM -SN OVC031 M08/M11 A2933 RMK AO2 P0000 FZRANO